createdAt,value
2023-04-22T00:01:51.476Z,8.72
2023-04-22T00:06:54.734Z,8.69
2023-04-22T00:11:58.214Z,8.71
2023-04-22T00:17:00.826Z,8.77
2023-04-22T00:22:03.449Z,8.74
2023-04-22T00:27:05.765Z,8.60
2023-04-22T00:32:08.887Z,8.57
2023-04-22T00:37:13.270Z,8.62
2023-04-22T00:42:16.387Z,8.60
2023-04-22T00:47:18.756Z,8.43
2023-04-22T00:52:23.010Z,8.43
2023-04-22T00:57:26.196Z,8.39
2023-04-22T01:02:28.736Z,8.38
2023-04-22T01:07:31.256Z,8.42
2023-04-22T01:12:34.810Z,8.34
2023-04-22T01:17:38.613Z,8.29
2023-04-22T01:22:41.060Z,8.26
2023-04-22T01:27:44.115Z,8.25
2023-04-22T01:32:46.851Z,8.20
2023-04-22T01:37:49.344Z,8.17
2023-04-22T01:42:51.798Z,8.22
2023-04-22T01:47:54.922Z,8.12
2023-04-22T01:52:57.319Z,8.05
2023-04-22T01:58:00.191Z,7.96
2023-04-22T02:03:03.405Z,7.89
2023-04-22T02:08:06.524Z,7.85
2023-04-22T02:13:09.674Z,7.80
2023-04-22T02:18:13.003Z,7.74
2023-04-22T02:23:16.185Z,7.80
2023-04-22T02:28:19.364Z,7.65
2023-04-22T02:33:21.838Z,7.63
2023-04-22T02:38:24.147Z,7.67
2023-04-22T02:43:26.789Z,7.57
2023-04-22T02:48:29.206Z,7.55
2023-04-22T02:53:32.380Z,7.43
2023-04-22T02:58:34.900Z,7.33
2023-04-22T03:03:37.787Z,7.34
2023-04-22T03:08:40.369Z,7.26
2023-04-22T03:13:42.670Z,7.28
2023-04-22T03:18:45.870Z,7.23
2023-04-22T03:23:48.562Z,7.39
2023-04-22T03:28:50.902Z,7.28
2023-04-22T03:33:54.717Z,7.19
2023-04-22T03:38:56.994Z,7.16
2023-04-22T03:44:01.802Z,7.02
2023-04-22T03:49:04.403Z,6.90
2023-04-22T03:54:06.955Z,6.80
2023-04-22T03:59:09.290Z,6.76
2023-04-22T04:04:12.235Z,6.79
2023-04-22T04:09:15.214Z,6.87
2023-04-22T04:14:17.966Z,6.80
2023-04-22T04:19:21.682Z,6.81
2023-04-22T04:24:24.056Z,6.83
2023-04-22T04:29:26.982Z,6.98
2023-04-22T04:34:29.340Z,7.21
2023-04-22T04:39:32.996Z,7.30
2023-04-22T04:44:36.010Z,7.54
2023-04-22T04:49:43.598Z,7.97
2023-04-22T04:54:46.481Z,8.43
2023-04-22T04:59:48.793Z,8.97
2023-04-22T05:04:51.342Z,9.37
2023-04-22T05:10:03.425Z,9.67
2023-04-22T05:15:06.623Z,10.58
2023-04-22T05:20:09.335Z,10.88
2023-04-22T05:25:11.709Z,11.02
2023-04-22T05:30:14.447Z,11.27
2023-04-22T05:35:16.869Z,11.74
2023-04-22T05:40:19.807Z,11.82
2023-04-22T05:45:22.153Z,12.47
2023-04-22T05:50:25.778Z,12.64
2023-04-22T05:55:28.994Z,12.87
2023-04-22T06:00:31.561Z,13.05
2023-04-22T06:05:34.510Z,13.34
2023-04-22T06:10:37.215Z,13.47
2023-04-22T06:15:39.674Z,13.94
2023-04-22T06:20:42.153Z,14.20
2023-04-22T06:25:44.729Z,14.30
2023-04-22T06:30:47.888Z,14.88
2023-04-22T06:35:51.048Z,15.22
2023-04-22T06:40:54.382Z,15.31
2023-04-22T06:45:57.530Z,15.41
2023-04-22T06:51:01.252Z,15.61
2023-04-22T06:56:03.569Z,15.60
2023-04-22T07:01:06.760Z,16.08
2023-04-22T07:06:10.115Z,15.82
2023-04-22T07:11:14.264Z,15.78
2023-04-22T07:16:17.592Z,16.08
2023-04-22T07:21:20.202Z,16.03
2023-04-22T07:26:22.737Z,16.38
2023-04-22T07:31:25.914Z,16.27
2023-04-22T07:36:28.372Z,16.52
2023-04-22T07:41:31.857Z,16.72
2023-04-22T07:46:34.136Z,16.54
2023-04-22T07:51:36.761Z,16.79
2023-04-22T07:56:39.175Z,17.15
2023-04-22T08:01:41.662Z,17.19
2023-04-22T08:06:44.047Z,17.52
2023-04-22T08:11:47.155Z,17.63
2023-04-22T08:16:49.727Z,17.58
2023-04-22T08:21:52.520Z,17.36
2023-04-22T08:26:55.241Z,17.70
2023-04-22T08:31:58.294Z,17.71
2023-04-22T08:37:00.963Z,17.85
2023-04-22T08:42:04.175Z,18.61
2023-04-22T08:47:07.485Z,18.14
2023-04-22T08:52:12.722Z,18.48
2023-04-22T08:57:15.218Z,19.02
2023-04-22T09:02:17.635Z,18.68
2023-04-22T09:07:20.976Z,18.62
2023-04-22T09:12:23.465Z,18.51
2023-04-22T09:17:26.519Z,18.26
2023-04-22T09:22:29.159Z,18.63
2023-04-22T09:27:34.041Z,18.90
2023-04-22T09:32:36.835Z,18.79
2023-04-22T09:37:48.864Z,18.89
2023-04-22T09:42:52.071Z,19.79
2023-04-22T09:47:54.513Z,19.42
2023-04-22T09:52:57.219Z,19.80
2023-04-22T09:57:59.598Z,19.06
2023-04-22T10:03:03.276Z,19.14
2023-04-22T10:08:06.227Z,19.17
2023-04-22T10:13:08.910Z,18.86
2023-04-22T10:18:11.985Z,18.85
2023-04-22T10:23:14.422Z,18.96
2023-04-22T10:28:16.868Z,18.86
2023-04-22T10:33:19.206Z,19.20
2023-04-22T10:38:21.524Z,19.36
2023-04-22T10:43:24.120Z,19.33
2023-04-22T10:48:26.416Z,19.11
2023-04-22T10:53:29.067Z,19.82
2023-04-22T10:58:31.378Z,19.84
2023-04-22T11:03:34.434Z,20.09
2023-04-22T11:08:36.877Z,19.51
2023-04-22T11:13:39.185Z,19.88
2023-04-22T11:18:41.654Z,19.95
2023-04-22T11:23:43.991Z,19.88
2023-04-22T11:28:46.291Z,19.93
2023-04-22T11:33:50.226Z,20.03
2023-04-22T11:38:54.164Z,20.13
2023-04-22T11:43:56.474Z,20.15
2023-04-22T11:48:58.771Z,20.52
2023-04-22T11:54:01.113Z,20.57
2023-04-22T11:59:03.471Z,20.76
2023-04-22T12:04:08.096Z,20.93
2023-04-22T12:09:11.986Z,20.74
2023-04-22T12:14:15.690Z,20.67
2023-04-22T12:19:18.105Z,21.19
2023-04-22T12:24:22.302Z,21.21
2023-04-22T12:29:24.791Z,21.17
2023-04-22T12:34:27.182Z,21.38
2023-04-22T12:39:29.471Z,21.05
2023-04-22T12:44:33.907Z,21.47
2023-04-22T12:49:36.621Z,21.43
2023-04-22T12:54:39.104Z,21.50
2023-04-22T12:59:41.804Z,21.36
2023-04-22T13:04:44.485Z,21.73
2023-04-22T13:09:47.674Z,21.67
2023-04-22T13:14:49.961Z,21.11
2023-04-22T13:19:52.681Z,21.37
2023-04-22T13:24:55.787Z,21.25
2023-04-22T13:29:58.366Z,21.34
2023-04-22T13:35:02.853Z,21.42
2023-04-22T13:40:06.337Z,21.47
2023-04-22T13:45:09.014Z,21.62
2023-04-22T13:50:11.417Z,21.63
2023-04-22T13:55:15.144Z,21.38
2023-04-22T14:00:17.760Z,21.52
2023-04-22T14:05:20.311Z,21.61
2023-04-22T14:10:23.447Z,22.07
2023-04-22T14:20:28.891Z,22.34
2023-04-22T14:25:31.210Z,22.07
2023-04-22T14:30:34.385Z,22.07
2023-04-22T14:35:36.678Z,21.63
2023-04-22T14:40:39.070Z,21.56
2023-04-22T14:45:41.316Z,21.66
2023-04-22T14:50:44.053Z,21.96
2023-04-22T14:55:46.566Z,21.69
2023-04-22T15:00:49.061Z,21.86
2023-04-22T15:05:52.387Z,21.52
2023-04-22T15:10:55.127Z,21.53
2023-04-22T15:15:57.853Z,21.47
2023-04-22T15:21:00.136Z,21.29
2023-04-22T15:26:03.417Z,21.10
2023-04-22T15:31:06.216Z,21.30
2023-04-22T15:36:09.592Z,21.06
2023-04-22T15:41:12.029Z,21.10
2023-04-22T15:46:15.347Z,20.95
2023-04-22T15:51:18.886Z,20.78
2023-04-22T15:56:21.897Z,20.82
2023-04-22T16:01:26.590Z,20.94
2023-04-22T16:06:29.120Z,20.64
2023-04-22T16:11:32.383Z,20.49
2023-04-22T16:16:35.649Z,20.47
2023-04-22T16:21:38.077Z,20.32
2023-04-22T16:26:40.590Z,20.35
2023-04-22T16:31:43.769Z,20.23
2023-04-22T16:36:46.916Z,20.04
2023-04-22T16:41:49.278Z,19.88
2023-04-22T16:46:51.697Z,20.05
2023-04-22T16:51:54.355Z,20.24
2023-04-22T16:56:58.130Z,20.29
2023-04-22T17:02:00.594Z,20.05
2023-04-22T17:07:03.169Z,19.90
2023-04-22T17:12:06.482Z,19.87
2023-04-22T17:17:08.970Z,19.73
2023-04-22T17:22:12.941Z,19.66
2023-04-22T17:27:16.331Z,19.32
2023-04-22T17:32:18.700Z,19.27
2023-04-22T17:37:21.010Z,19.14
2023-04-22T17:42:27.224Z,19.00
2023-04-22T17:47:35.418Z,18.82
2023-04-22T17:52:38.505Z,18.66
2023-04-22T17:57:43.865Z,18.52
2023-04-22T18:02:46.555Z,18.33
2023-04-22T18:07:49.025Z,18.16
2023-04-22T18:12:51.474Z,18.04
2023-04-22T18:17:53.766Z,17.82
2023-04-22T18:22:57.191Z,17.55
2023-04-22T18:27:59.484Z,17.38
2023-04-22T18:33:04.598Z,17.42
2023-04-22T18:38:07.849Z,17.12
2023-04-22T18:43:10.945Z,17.08
2023-04-22T18:48:13.608Z,16.98
2023-04-22T18:53:16.261Z,16.93
2023-04-22T18:58:20.687Z,16.82
2023-04-22T19:03:23.934Z,16.66
2023-04-22T19:08:27.097Z,16.62
2023-04-22T19:13:30.312Z,16.63
2023-04-22T19:18:33.699Z,16.56
2023-04-22T19:23:37.250Z,16.65
2023-04-22T19:28:39.774Z,16.60
2023-04-22T19:33:44.605Z,16.78
2023-04-22T19:38:46.961Z,16.82
2023-04-22T19:43:49.739Z,16.74
2023-04-22T19:48:52.329Z,16.78
2023-04-22T19:53:55.063Z,16.81
2023-04-22T19:58:58.286Z,16.80
2023-04-22T20:04:00.961Z,16.74
2023-04-22T20:09:05.388Z,16.62
2023-04-22T20:14:09.852Z,16.62
2023-04-22T20:19:13.869Z,16.73
2023-04-22T20:24:19.996Z,16.57
2023-04-22T20:29:22.544Z,16.41
2023-04-22T20:34:26.023Z,16.20
2023-04-22T20:39:28.524Z,15.91
2023-04-22T20:44:33.807Z,15.64
2023-04-22T20:49:40.380Z,15.53
2023-04-22T20:54:44.803Z,15.60
2023-04-22T20:59:47.559Z,15.37
2023-04-22T21:04:50.522Z,15.31
2023-04-22T21:09:53.686Z,15.30
2023-04-22T21:14:56.230Z,15.29
2023-04-22T21:20:09.491Z,15.12
2023-04-22T21:25:12.206Z,14.97
2023-04-22T21:30:15.016Z,14.77
2023-04-22T21:35:17.943Z,14.73
2023-04-22T21:40:20.474Z,14.53
2023-04-22T21:45:23.640Z,14.38
2023-04-22T21:50:26.845Z,14.36
2023-04-22T21:55:29.175Z,14.26
2023-04-22T22:00:31.615Z,14.10
2023-04-22T22:05:34.549Z,14.04
2023-04-22T22:10:37.007Z,13.99
2023-04-22T22:15:39.482Z,13.96
2023-04-22T22:20:42.097Z,13.75
2023-04-22T22:25:45.248Z,13.71
2023-04-22T22:30:48.631Z,13.72
2023-04-22T22:35:52.051Z,13.78
2023-04-22T22:40:54.794Z,13.88
2023-04-22T22:45:57.596Z,13.94
2023-04-22T22:51:00.804Z,14.02
2023-04-22T22:56:04.163Z,13.99
2023-04-22T23:01:06.537Z,14.00
2023-04-22T23:06:18.954Z,13.98
2023-04-22T23:11:23.363Z,14.10
2023-04-22T23:16:26.338Z,14.06
2023-04-22T23:21:29.583Z,14.04
2023-04-22T23:26:31.868Z,14.06
2023-04-22T23:31:35.194Z,14.04
2023-04-22T23:36:37.632Z,13.97
2023-04-22T23:41:39.920Z,13.89
2023-04-22T23:46:42.397Z,13.82
2023-04-22T23:51:46.365Z,13.84
2023-04-22T23:56:48.730Z,13.80
